createdAt,value
2022-10-01T00:01:17.448Z,19.50
2022-10-01T00:03:45.611Z,19.59
2022-10-01T00:06:18.398Z,19.49
2022-10-01T00:08:49.149Z,19.46
2022-10-01T00:11:19.918Z,19.49
2022-10-01T00:13:47.455Z,18.99
2022-10-01T00:16:18.361Z,19.14
2022-10-01T00:18:48.140Z,18.83
2022-10-01T00:21:23.676Z,18.75
2022-10-01T00:24:02.231Z,19.00
2022-10-01T00:26:32.022Z,18.86
2022-10-01T00:29:05.516Z,18.92
2022-10-01T00:31:33.500Z,19.14
2022-10-01T00:34:03.407Z,19.23
2022-10-01T00:36:31.795Z,19.30
2022-10-01T00:39:02.200Z,19.32
2022-10-01T00:41:32.279Z,19.03
2022-10-01T00:44:20.705Z,18.96
2022-10-01T00:46:47.673Z,19.31
2022-10-01T00:49:24.413Z,19.64
2022-10-01T00:51:55.446Z,19.64
2022-10-01T00:54:43.375Z,19.63
2022-10-01T00:57:12.553Z,19.55
2022-10-01T00:59:39.554Z,19.51
2022-10-01T01:02:06.623Z,19.52
2022-10-01T01:04:33.614Z,19.52
2022-10-01T01:07:04.030Z,19.50
2022-10-01T01:09:35.309Z,19.61
2022-10-01T01:12:20.188Z,19.60
2022-10-01T01:15:10.565Z,19.56
2022-10-01T01:17:55.674Z,19.74
2022-10-01T01:20:22.475Z,19.82
2022-10-01T01:23:03.498Z,19.92
2022-10-01T01:26:03.588Z,19.97
2022-10-01T01:28:39.575Z,19.70
2022-10-01T01:31:15.596Z,19.16
2022-10-01T01:33:46.238Z,18.55
2022-10-01T01:36:18.941Z,18.47
2022-10-01T01:38:51.793Z,18.45
2022-10-01T01:41:21.031Z,17.97
2022-10-01T01:43:51.987Z,18.37
2022-10-01T01:46:20.490Z,18.81
2022-10-01T01:48:53.395Z,18.97
2022-10-01T01:51:33.014Z,18.90
2022-10-01T01:54:00.511Z,19.13
2022-10-01T01:56:27.993Z,18.77
2022-10-01T01:58:55.067Z,18.35
2022-10-01T02:01:42.452Z,18.17
2022-10-01T02:04:35.695Z,18.47
2022-10-01T02:07:05.401Z,18.60
2022-10-01T02:09:47.216Z,18.86
2022-10-01T02:12:38.447Z,18.98
2022-10-01T02:15:13.874Z,18.84
2022-10-01T02:17:50.731Z,18.73
2022-10-01T02:20:28.306Z,18.64
2022-10-01T02:23:01.007Z,18.13
2022-10-01T02:25:34.751Z,17.61
2022-10-01T02:28:07.818Z,17.46
2022-10-01T02:30:36.234Z,17.71
2022-10-01T02:33:05.731Z,17.75
2022-10-01T02:35:35.956Z,17.93
2022-10-01T02:38:06.497Z,18.12
2022-10-01T02:40:37.238Z,18.07
2022-10-01T02:43:09.130Z,18.24
2022-10-01T02:45:41.184Z,17.73
2022-10-01T02:48:11.471Z,17.65
2022-10-01T02:50:52.142Z,17.71
2022-10-01T02:53:23.606Z,18.00
2022-10-01T02:55:52.714Z,17.78
2022-10-01T02:58:20.469Z,17.80
2022-10-01T03:00:47.387Z,18.01
2022-10-01T03:03:14.287Z,17.79
2022-10-01T03:05:41.215Z,17.63
2022-10-01T03:08:08.233Z,17.75
2022-10-01T03:10:35.137Z,18.00
2022-10-01T03:13:02.245Z,17.77
2022-10-01T03:15:29.769Z,17.93
2022-10-01T03:17:56.690Z,17.99
2022-10-01T03:20:23.879Z,18.17
2022-10-01T03:22:50.821Z,18.24
2022-10-01T03:25:18.080Z,18.39
2022-10-01T03:27:46.264Z,18.18
2022-10-01T03:30:13.297Z,17.94
2022-10-01T03:32:40.162Z,17.94
2022-10-01T03:35:07.698Z,17.91
2022-10-01T03:37:34.632Z,17.79
2022-10-01T03:40:01.841Z,17.30
2022-10-01T03:42:28.696Z,16.97
2022-10-01T03:44:56.088Z,16.82
2022-10-01T03:47:24.463Z,17.16
2022-10-01T03:49:51.403Z,17.34
2022-10-01T03:52:19.225Z,17.27
2022-10-01T03:54:46.117Z,17.18
2022-10-01T03:57:12.994Z,17.47
2022-10-01T03:59:39.928Z,17.43
2022-10-01T04:02:08.399Z,17.51
2022-10-01T04:04:35.377Z,17.26
2022-10-01T04:07:02.248Z,17.64
2022-10-01T04:09:29.100Z,17.82
2022-10-01T04:11:56.111Z,17.71
2022-10-01T04:14:23.092Z,17.68
2022-10-01T04:16:52.600Z,17.49
2022-10-01T04:19:20.463Z,17.88
2022-10-01T04:21:47.838Z,17.96
2022-10-01T04:24:14.722Z,17.91
2022-10-01T04:26:41.565Z,18.38
2022-10-01T04:29:08.735Z,18.84
2022-10-01T04:31:36.191Z,19.84
2022-10-01T04:34:04.020Z,20.51
2022-10-01T04:36:31.201Z,21.05
2022-10-01T04:39:02.194Z,21.93
2022-10-01T04:41:31.899Z,22.88
2022-10-01T04:44:00.044Z,24.69
2022-10-01T04:46:30.118Z,24.37
2022-10-01T04:48:57.392Z,25.58
2022-10-01T04:51:24.703Z,27.04
2022-10-01T04:53:51.541Z,27.94
2022-10-01T04:56:18.391Z,27.85
2022-10-01T04:58:45.233Z,26.71
2022-10-01T05:01:12.627Z,27.27
2022-10-01T05:03:39.958Z,27.30
2022-10-01T05:06:06.892Z,29.02
2022-10-01T05:08:33.805Z,30.26
2022-10-01T05:11:00.729Z,30.86
2022-10-01T05:13:31.964Z,30.75
2022-10-01T05:15:59.430Z,31.46
2022-10-01T05:18:26.623Z,29.90
2022-10-01T05:20:53.499Z,29.38
2022-10-01T05:23:20.408Z,29.55
2022-10-01T05:25:47.457Z,28.36
2022-10-01T05:28:18.403Z,28.29
2022-10-01T05:30:49.271Z,27.92
2022-10-01T05:33:16.210Z,28.41
2022-10-01T05:35:43.119Z,29.01
2022-10-01T05:38:10.157Z,28.50
2022-10-01T05:40:37.226Z,29.46
2022-10-01T05:43:04.564Z,30.94
2022-10-01T05:45:32.276Z,30.89
2022-10-01T05:48:01.255Z,30.90
2022-10-01T05:50:31.689Z,30.54
2022-10-01T05:52:59.522Z,31.81
2022-10-01T05:55:27.057Z,32.49
2022-10-01T05:58:04.896Z,31.91
2022-10-01T06:00:33.754Z,35.21
2022-10-01T06:03:02.469Z,35.06
2022-10-01T06:05:31.496Z,35.38
2022-10-01T06:07:58.444Z,36.45
2022-10-01T06:10:25.744Z,36.70
2022-10-01T06:12:53.284Z,36.74
2022-10-01T06:15:20.202Z,36.48
2022-10-01T06:17:47.227Z,35.72
2022-10-01T06:20:19.237Z,38.18
2022-10-01T06:22:54.319Z,36.80
2022-10-01T06:25:21.692Z,37.09
2022-10-01T06:27:55.706Z,35.83
2022-10-01T06:30:22.823Z,34.88
2022-10-01T06:32:49.682Z,36.37
2022-10-01T06:35:16.618Z,35.53
2022-10-01T06:37:43.484Z,36.63
2022-10-01T06:40:10.572Z,36.26
2022-10-01T06:42:37.419Z,38.73
2022-10-01T06:45:04.840Z,39.00
2022-10-01T06:47:31.771Z,39.80
2022-10-01T06:49:59.470Z,40.22
2022-10-01T06:52:44.715Z,39.63
2022-10-01T06:55:16.349Z,39.67
2022-10-01T06:57:44.041Z,40.20
2022-10-01T07:00:11.966Z,40.77
2022-10-01T07:02:39.781Z,41.15
2022-10-01T07:05:08.638Z,40.69
2022-10-01T07:07:37.550Z,40.34
2022-10-01T07:10:09.293Z,41.67
2022-10-01T07:12:37.806Z,42.59
2022-10-01T07:15:06.502Z,41.11
2022-10-01T07:17:33.852Z,39.81
2022-10-01T07:20:01.826Z,39.55
2022-10-01T07:22:28.747Z,38.74
2022-10-01T07:24:55.670Z,39.88
2022-10-01T07:27:22.580Z,40.52
2022-10-01T07:29:49.456Z,41.20
2022-10-01T07:32:16.720Z,39.26
2022-10-01T07:34:43.566Z,40.15
2022-10-01T07:37:10.970Z,39.19
2022-10-01T07:39:38.077Z,39.55
2022-10-01T07:42:04.968Z,39.00
2022-10-01T07:44:31.830Z,37.69
2022-10-01T07:46:59.284Z,36.79
2022-10-01T07:49:26.291Z,35.62
2022-10-01T07:51:54.860Z,34.81
2022-10-01T07:54:22.650Z,34.19
2022-10-01T07:56:52.956Z,33.93
2022-10-01T07:59:20.000Z,33.50
2022-10-01T08:01:53.474Z,32.71
2022-10-01T08:04:40.288Z,32.38
2022-10-01T08:07:08.388Z,32.73
2022-10-01T08:09:35.993Z,33.17
2022-10-01T08:12:03.165Z,33.17
2022-10-01T08:14:30.607Z,32.39
2022-10-01T08:16:57.875Z,32.43
2022-10-01T08:19:25.539Z,33.87
2022-10-01T08:21:52.935Z,32.38
2022-10-01T08:24:20.244Z,32.03
2022-10-01T08:26:53.435Z,31.78
2022-10-01T08:29:20.558Z,32.01
2022-10-01T08:31:48.352Z,31.68
2022-10-01T08:34:15.609Z,31.08
2022-10-01T08:36:42.545Z,30.81
2022-10-01T08:39:09.438Z,31.13
2022-10-01T08:42:00.524Z,30.91
2022-10-01T08:44:41.305Z,31.67
2022-10-01T08:47:17.335Z,31.49
2022-10-01T08:49:53.750Z,32.66
2022-10-01T08:52:25.114Z,32.54
2022-10-01T08:55:00.575Z,31.35
2022-10-01T08:57:38.562Z,31.36
2022-10-01T09:00:12.383Z,31.70
2022-10-01T09:02:41.674Z,30.55
2022-10-01T09:05:29.779Z,30.39
2022-10-01T09:08:24.661Z,30.72
2022-10-01T09:11:01.738Z,30.92
2022-10-01T09:13:34.641Z,31.43
2022-10-01T09:16:29.560Z,32.59
2022-10-01T09:19:02.348Z,32.30
2022-10-01T09:21:47.526Z,31.76
2022-10-01T09:24:38.480Z,31.66
2022-10-01T09:27:13.895Z,31.75
2022-10-01T09:29:46.368Z,32.06
2022-10-01T09:32:18.344Z,31.48
2022-10-01T09:34:46.009Z,31.01
2022-10-01T09:37:15.797Z,31.40
2022-10-01T09:39:54.812Z,31.44
2022-10-01T09:42:26.985Z,31.28
2022-10-01T09:44:54.766Z,31.02
2022-10-01T09:47:25.769Z,31.58
2022-10-01T09:49:53.162Z,31.32
2022-10-01T09:52:38.459Z,31.49
2022-10-01T09:55:42.363Z,32.12
2022-10-01T09:58:18.397Z,32.20
2022-10-01T10:00:45.541Z,32.63
2022-10-01T10:03:23.797Z,33.24
2022-10-01T10:05:51.414Z,34.02
2022-10-01T10:08:21.359Z,32.83
2022-10-01T10:10:58.456Z,33.34
2022-10-01T10:13:35.406Z,33.72
2022-10-01T10:16:26.595Z,35.25
2022-10-01T10:19:02.322Z,35.63
2022-10-01T10:21:35.059Z,33.08
2022-10-01T10:24:05.215Z,33.95
2022-10-01T10:26:33.971Z,33.63
2022-10-01T10:29:03.500Z,33.01
2022-10-01T10:31:55.581Z,34.37
2022-10-01T10:34:38.379Z,33.59
2022-10-01T10:37:15.285Z,33.18
2022-10-01T10:39:46.831Z,32.13
2022-10-01T10:42:18.985Z,32.50
2022-10-01T10:44:49.401Z,33.09
2022-10-01T10:47:19.335Z,32.42
2022-10-01T10:49:49.244Z,31.34
2022-10-01T10:52:20.945Z,33.06
2022-10-01T10:54:50.781Z,31.91
2022-10-01T10:57:28.153Z,32.11
2022-10-01T11:00:01.112Z,32.50
2022-10-01T11:02:30.604Z,32.78
2022-10-01T11:05:15.340Z,32.16
2022-10-01T11:07:45.450Z,31.48
2022-10-01T11:10:25.591Z,30.76
2022-10-01T11:13:18.683Z,30.07
2022-10-01T11:16:42.282Z,29.31
2022-10-01T11:19:21.089Z,28.73
2022-10-01T11:21:57.982Z,29.93
2022-10-01T11:24:47.076Z,30.17
2022-10-01T11:27:36.337Z,31.12
2022-10-01T11:30:15.391Z,31.42
2022-10-01T11:33:33.047Z,31.46
2022-10-01T11:36:17.933Z,29.10
2022-10-01T11:39:05.562Z,29.14
2022-10-01T11:41:41.568Z,29.68
2022-10-01T11:44:29.837Z,29.64
2022-10-01T11:47:03.709Z,29.98
2022-10-01T11:49:54.822Z,30.29
2022-10-01T11:52:42.117Z,30.41
2022-10-01T11:55:55.234Z,30.34
2022-10-01T11:58:57.541Z,30.28
2022-10-01T12:01:24.456Z,29.91
2022-10-01T12:03:54.626Z,29.21
2022-10-01T12:06:33.598Z,29.26
2022-10-01T12:09:17.656Z,27.86
2022-10-01T12:12:11.614Z,27.77
2022-10-01T12:14:45.214Z,27.57
2022-10-01T12:17:27.347Z,27.91
2022-10-01T12:19:58.695Z,28.11
2022-10-01T12:22:35.827Z,28.18
2022-10-01T12:25:02.882Z,29.92
2022-10-01T12:27:38.630Z,30.11
2022-10-01T12:30:12.919Z,30.54
2022-10-01T12:32:39.650Z,31.17
2022-10-01T12:35:12.592Z,31.00
2022-10-01T12:38:01.114Z,30.16
2022-10-01T12:40:31.644Z,29.90
2022-10-01T12:43:20.827Z,30.17
2022-10-01T12:46:05.157Z,30.03
2022-10-01T12:49:00.624Z,29.50
2022-10-01T12:51:38.162Z,29.04
2022-10-01T12:54:24.483Z,28.61
2022-10-01T12:57:09.752Z,27.41
2022-10-01T12:59:40.950Z,26.68
2022-10-01T13:02:25.584Z,27.14
2022-10-01T13:05:10.575Z,27.57
2022-10-01T13:07:37.330Z,29.16
2022-10-01T13:10:27.847Z,30.54
2022-10-01T13:12:56.649Z,30.07
2022-10-01T13:15:28.357Z,30.30
2022-10-01T13:18:09.642Z,30.73
2022-10-01T13:21:05.821Z,29.59
2022-10-01T13:23:43.964Z,28.89
2022-10-01T13:26:32.333Z,28.71
2022-10-01T13:29:30.614Z,28.70
2022-10-01T13:32:00.141Z,28.90
2022-10-01T13:34:53.922Z,27.81
2022-10-01T13:37:29.880Z,27.40
2022-10-01T13:39:58.318Z,27.64
2022-10-01T13:42:37.046Z,27.27
2022-10-01T13:45:07.349Z,27.77
2022-10-01T13:47:41.297Z,27.59
2022-10-01T13:50:19.728Z,27.60
2022-10-01T13:52:47.149Z,28.64
2022-10-01T13:55:28.679Z,29.03
2022-10-01T13:58:06.539Z,28.41
2022-10-01T14:00:33.720Z,28.24
2022-10-01T14:03:29.502Z,28.42
2022-10-01T14:06:02.566Z,28.13
2022-10-01T14:08:38.233Z,28.15
2022-10-01T14:11:30.486Z,27.58
2022-10-01T14:14:26.600Z,27.43
2022-10-01T14:16:54.901Z,27.26
2022-10-01T14:19:25.247Z,27.20
2022-10-01T14:22:14.590Z,27.03
2022-10-01T14:24:47.362Z,26.71
2022-10-01T14:27:31.425Z,25.93
2022-10-01T14:30:14.733Z,25.86
2022-10-01T14:33:02.996Z,25.82
2022-10-01T14:35:53.692Z,25.93
2022-10-01T14:38:22.012Z,25.07
2022-10-01T14:40:50.718Z,24.83
2022-10-01T14:43:30.268Z,24.47
2022-10-01T14:45:59.747Z,24.69
2022-10-01T14:48:29.726Z,24.66
2022-10-01T14:51:03.223Z,24.90
2022-10-01T14:53:35.991Z,24.88
2022-10-01T14:56:13.576Z,25.09
2022-10-01T14:58:46.736Z,24.69
2022-10-01T15:01:21.163Z,24.93
2022-10-01T15:03:49.341Z,25.02
2022-10-01T15:06:20.770Z,24.74
2022-10-01T15:08:53.336Z,25.03
2022-10-01T15:11:23.657Z,25.06
2022-10-01T15:13:53.045Z,24.76
2022-10-01T15:16:27.497Z,24.98
2022-10-01T15:19:01.469Z,24.67
2022-10-01T15:21:47.761Z,24.35
2022-10-01T15:24:33.782Z,24.07
2022-10-01T15:27:01.792Z,23.72
2022-10-01T15:29:28.689Z,23.71
2022-10-01T15:31:57.799Z,23.73
2022-10-01T15:34:26.927Z,23.69
2022-10-01T15:36:54.797Z,23.43
2022-10-01T15:39:27.900Z,23.15
2022-10-01T15:41:56.811Z,23.34
2022-10-01T15:44:45.593Z,23.18
2022-10-01T15:47:47.880Z,23.22
2022-10-01T15:50:23.759Z,23.01
2022-10-01T15:53:19.571Z,22.83
2022-10-01T15:55:52.704Z,23.16
2022-10-01T15:58:27.050Z,22.60
2022-10-01T16:01:10.625Z,22.61
2022-10-01T16:03:49.360Z,22.75
2022-10-01T16:06:24.054Z,22.53
2022-10-01T16:09:00.294Z,22.33
2022-10-01T16:11:32.252Z,22.05
2022-10-01T16:14:29.240Z,22.00
2022-10-01T16:17:24.124Z,21.84
2022-10-01T16:19:53.476Z,21.73
2022-10-01T16:22:34.955Z,21.76
2022-10-01T16:25:26.071Z,21.98
2022-10-01T16:28:04.024Z,21.90
2022-10-01T16:30:32.637Z,22.22
2022-10-01T16:33:02.628Z,22.37
2022-10-01T16:35:32.715Z,22.07
2022-10-01T16:37:59.814Z,21.82
2022-10-01T16:40:30.102Z,21.79
2022-10-01T16:42:59.266Z,21.64
2022-10-01T16:45:29.620Z,21.62
2022-10-01T16:47:59.236Z,21.90
2022-10-01T16:50:26.566Z,22.32
2022-10-01T16:52:55.525Z,22.95
2022-10-01T16:55:27.765Z,23.03
2022-10-01T16:57:55.145Z,22.79
2022-10-01T17:00:24.556Z,22.86
2022-10-01T17:02:51.973Z,22.61
2022-10-01T17:05:26.120Z,22.41
2022-10-01T17:07:54.617Z,22.09
2022-10-01T17:10:23.848Z,21.92
2022-10-01T17:12:51.165Z,22.13
2022-10-01T17:15:26.551Z,22.53
2022-10-01T17:17:58.011Z,22.59
2022-10-01T17:20:28.745Z,21.98
2022-10-01T17:22:57.393Z,21.53
2022-10-01T17:25:34.445Z,21.89
2022-10-01T17:28:03.233Z,22.34
2022-10-01T17:30:31.197Z,22.55
2022-10-01T17:33:00.101Z,22.48
2022-10-01T17:35:28.964Z,22.57
2022-10-01T17:37:56.148Z,22.89
2022-10-01T17:40:23.331Z,22.76
2022-10-01T17:42:50.415Z,22.87
2022-10-01T17:45:17.475Z,22.95
2022-10-01T17:47:48.943Z,22.77
2022-10-01T17:50:16.933Z,22.29
2022-10-01T17:52:46.483Z,22.61
2022-10-01T17:55:13.614Z,22.60
2022-10-01T17:57:40.504Z,22.77
2022-10-01T18:00:08.195Z,22.83
2022-10-01T18:02:42.861Z,22.77
2022-10-01T18:05:12.618Z,22.86
2022-10-01T18:07:40.442Z,23.05
2022-10-01T18:10:10.984Z,23.00
2022-10-01T18:12:37.847Z,22.99
2022-10-01T18:15:05.298Z,22.96
2022-10-01T18:17:33.309Z,22.92
2022-10-01T18:20:00.400Z,23.01
2022-10-01T18:22:28.309Z,22.74
2022-10-01T18:24:55.494Z,22.85
2022-10-01T18:27:22.475Z,22.30
2022-10-01T18:29:49.506Z,22.38
2022-10-01T18:32:26.845Z,22.40
2022-10-01T18:34:59.265Z,22.34
2022-10-01T18:37:39.030Z,22.46
2022-10-01T18:40:17.940Z,22.29
2022-10-01T18:43:06.228Z,21.94
2022-10-01T18:45:41.936Z,22.13
2022-10-01T18:48:26.964Z,22.10
2022-10-01T18:51:09.039Z,21.59
2022-10-01T18:54:14.424Z,21.60
2022-10-01T18:56:54.368Z,21.44
2022-10-01T18:59:33.357Z,21.41
2022-10-01T19:02:26.485Z,21.56
2022-10-01T19:05:30.610Z,21.82
2022-10-01T19:08:17.918Z,21.87
2022-10-01T19:10:44.730Z,21.62
2022-10-01T19:13:13.895Z,21.83
2022-10-01T19:16:13.222Z,21.62
2022-10-01T19:18:56.846Z,21.46
2022-10-01T19:21:32.765Z,21.50
2022-10-01T19:24:17.435Z,21.34
2022-10-01T19:26:59.454Z,21.63
2022-10-01T19:29:41.629Z,21.61
2022-10-01T19:32:22.103Z,21.57
2022-10-01T19:34:56.910Z,21.40
2022-10-01T19:37:47.919Z,21.29
2022-10-01T19:40:51.856Z,21.08
2022-10-01T19:43:46.193Z,21.38
2022-10-01T19:46:24.012Z,21.47
2022-10-01T19:48:57.151Z,21.51
2022-10-01T19:51:30.559Z,21.63
2022-10-01T19:54:01.222Z,21.99
2022-10-01T19:56:31.214Z,21.96
2022-10-01T19:59:11.658Z,21.98
2022-10-01T20:01:44.389Z,22.03
2022-10-01T20:04:21.778Z,21.85
2022-10-01T20:06:48.666Z,21.73
2022-10-01T20:09:34.747Z,20.16
2022-10-01T20:12:18.497Z,19.71
2022-10-01T20:15:09.422Z,19.41
2022-10-01T20:17:36.295Z,19.30
2022-10-01T20:20:32.290Z,19.78
2022-10-01T20:23:26.615Z,20.18
2022-10-01T20:26:02.482Z,20.02
2022-10-01T20:28:44.743Z,19.77
2022-10-01T20:31:19.006Z,20.26
2022-10-01T20:34:07.694Z,20.38
2022-10-01T20:36:41.673Z,20.64
2022-10-01T20:39:11.892Z,20.35
2022-10-01T20:41:48.957Z,20.32
2022-10-01T20:44:22.088Z,20.44
2022-10-01T20:46:52.480Z,20.73
2022-10-01T20:49:27.328Z,20.75
2022-10-01T20:51:58.694Z,21.15
2022-10-01T20:54:32.612Z,21.13
2022-10-01T20:56:59.798Z,21.32
2022-10-01T20:59:36.703Z,21.12
2022-10-01T21:02:19.229Z,21.28
2022-10-01T21:05:00.762Z,20.92
2022-10-01T21:07:42.388Z,20.68
2022-10-01T21:10:43.417Z,20.60
2022-10-01T21:13:17.448Z,20.85
2022-10-01T21:15:50.041Z,20.82
2022-10-01T21:19:10.644Z,20.84
2022-10-01T21:21:53.339Z,20.75
2022-10-01T21:24:39.348Z,20.56
2022-10-01T21:27:06.213Z,20.44
2022-10-01T21:29:57.264Z,20.59
2022-10-01T21:32:36.818Z,20.51
2022-10-01T21:35:31.107Z,20.65
2022-10-01T21:38:16.478Z,20.70
2022-10-01T21:40:46.390Z,20.59
2022-10-01T21:43:46.970Z,20.97
2022-10-01T21:46:38.684Z,20.92
2022-10-01T21:49:17.603Z,20.59
2022-10-01T21:51:45.399Z,20.58
2022-10-01T21:54:44.792Z,20.42
2022-10-01T21:57:30.126Z,20.56
2022-10-01T22:00:23.347Z,20.32
2022-10-01T22:03:15.123Z,20.86
2022-10-01T22:06:00.300Z,20.78
2022-10-01T22:08:50.304Z,20.87
2022-10-01T22:11:23.466Z,21.01
2022-10-01T22:13:58.728Z,21.22
2022-10-01T22:16:31.918Z,21.27
2022-10-01T22:19:07.083Z,21.18
2022-10-01T22:21:50.491Z,20.38
2022-10-01T22:24:43.686Z,20.40
2022-10-01T22:27:19.143Z,20.49
2022-10-01T22:29:55.648Z,20.53
2022-10-01T22:32:24.797Z,20.88
2022-10-01T22:35:12.530Z,20.88
2022-10-01T22:37:53.958Z,21.13
2022-10-01T22:40:28.475Z,20.86
2022-10-01T22:43:04.617Z,20.59
2022-10-01T22:46:00.610Z,20.71
2022-10-01T22:49:03.865Z,20.86
2022-10-01T22:51:49.909Z,20.98
2022-10-01T22:54:58.940Z,20.67
2022-10-01T22:57:57.568Z,20.67
2022-10-01T23:00:24.608Z,21.05
2022-10-01T23:03:18.461Z,21.31
2022-10-01T23:06:06.387Z,21.38
2022-10-01T23:08:45.491Z,21.33
2022-10-01T23:11:18.405Z,21.46
2022-10-01T23:14:23.871Z,21.57
2022-10-01T23:17:22.894Z,21.63
2022-10-01T23:20:25.045Z,21.87
2022-10-01T23:22:54.506Z,21.74
2022-10-01T23:25:36.723Z,21.34
2022-10-01T23:28:21.268Z,21.32
2022-10-01T23:31:06.489Z,21.41
2022-10-01T23:33:58.165Z,20.32
2022-10-01T23:36:37.163Z,19.75
2022-10-01T23:39:07.124Z,19.32
2022-10-01T23:41:47.810Z,20.20
2022-10-01T23:44:23.790Z,20.80
2022-10-01T23:46:53.316Z,21.93
2022-10-01T23:49:26.775Z,22.37
2022-10-01T23:52:13.001Z,22.63
2022-10-01T23:54:56.638Z,22.15
2022-10-01T23:57:31.986Z,22.12
